Square Butte, Montana
Current Conditions -  °F | °C
As of 2:56 AM on Thursday 23 Oct 2014 (Local Time) from KGFA Reporting Station
Clear Clear  
Wind Chill: 50°   Ceiling: Unl
Heat Index: 50°   Visibility: 10mi
Dew Point: 32°   Wind: 21mph
Humidity: 50%   Direction: 210°SSW
Pressure: 29.83"   Gusts: NA
Location:  47.5886°N, 110.344°W
Report Text: KGFA 230856Z AUTO 21018KT 10SM CLR 10/00 A2983 RMK AO2 SLP104 T01010001 55007
Loading
Personal Weather Stations






























Interactive Weather Map
Tropical Storm Tracking
New forecast layout! Learn more

10-Day Weather Forecast

Advertisements
Track Severe Weather on mobile